Terminal Aerodrome Forecast
Issued by NWS

Home | Current Version | Previous Version | Text Only | Print | Product List | Glossary On
Versions: 1 2 3 4 5 6 7 8 9 10 11 12 13 14
000
FTUS43 KMPX 281120
TAFAXN
TAF
KAXN 281120Z 2812/2912 17011KT P6SM BKN150
     FM281400 19014G25KT P6SM BKN150
     FM281700 18018G28KT P6SM SCT060 BKN150
     FM290100 20009KT P6SM SCT060 BKN100
     FM290400 26005KT P6SM -SHRA BKN025 OVC050
     FM290900 36005KT P6SM VCSH OVC030=

USA.gov is the U.S. government's official web portal to all federal, state and local government web resources and services.